createdAt,value
2018-11-07T00:00:08.230Z,27.73
2018-11-07T00:02:37.303Z,28.20
2018-11-07T00:05:06.973Z,27.73
2018-11-07T00:07:36.119Z,28.10
2018-11-07T00:10:09.972Z,28.33
2018-11-07T00:12:39.388Z,28.93
2018-11-07T00:15:10.784Z,28.30
2018-11-07T00:17:39.952Z,29.57
2018-11-07T00:20:10.449Z,30.23
2018-11-07T00:22:39.775Z,28.93
2018-11-07T00:25:10.167Z,29.73
2018-11-07T00:27:39.432Z,30.17
2018-11-07T00:30:09.539Z,30.40
2018-11-07T00:32:38.827Z,28.20
2018-11-07T00:35:08.805Z,29.53
2018-11-07T00:37:37.925Z,28.67
2018-11-07T00:40:07.121Z,29.17
2018-11-07T00:42:36.122Z,28.57
2018-11-07T00:45:06.038Z,27.87
2018-11-07T00:47:35.137Z,28.33
2018-11-07T00:50:05.003Z,28.23
2018-11-07T00:52:34.107Z,28.93
2018-11-07T00:55:03.122Z,28.47
2018-11-07T00:57:32.144Z,28.33
2018-11-07T01:00:01.202Z,28.50
2018-11-07T01:02:30.322Z,28.67
2018-11-07T01:04:59.300Z,28.50
2018-11-07T01:07:28.351Z,31.40
2018-11-07T01:09:57.479Z,28.97
2018-11-07T01:12:26.659Z,31.80
2018-11-07T01:14:55.782Z,32.20
2018-11-07T01:17:24.836Z,36.03
2018-11-07T01:19:54.040Z,39.67
2018-11-07T01:22:23.190Z,45.50
2018-11-07T01:24:52.357Z,47.17
2018-11-07T01:27:25.228Z,51.63
2018-11-07T01:29:54.560Z,50.27
2018-11-07T01:32:23.651Z,47.00
2018-11-07T01:34:52.711Z,49.50
2018-11-07T01:37:21.737Z,47.53
2018-11-07T01:39:50.829Z,45.83
2018-11-07T01:42:19.826Z,42.60
2018-11-07T01:44:49.073Z,40.13
2018-11-07T01:47:18.037Z,40.47
2018-11-07T01:49:48.224Z,37.80
2018-11-07T01:52:17.435Z,31.90
2018-11-07T01:54:46.653Z,33.90
2018-11-07T01:57:16.444Z,33.00
2018-11-07T01:59:45.900Z,33.33
2018-11-07T02:02:15.232Z,36.77
2018-11-07T02:04:44.589Z,45.67
2018-11-07T02:07:13.741Z,52.30
2018-11-07T02:09:42.904Z,55.27
2018-11-07T02:12:12.063Z,54.83
2018-11-07T02:14:41.216Z,55.80
2018-11-07T02:17:10.338Z,57.83
2018-11-07T02:19:39.700Z,57.67
2018-11-07T02:22:08.906Z,54.97
2018-11-07T02:24:37.945Z,55.70
2018-11-07T02:27:07.028Z,54.80
2018-11-07T02:29:36.755Z,51.63
2018-11-07T02:32:05.970Z,55.13
2018-11-07T02:34:35.104Z,53.73
2018-11-07T02:37:04.366Z,54.67
2018-11-07T02:39:33.414Z,54.73
2018-11-07T02:42:02.631Z,54.60
2018-11-07T02:44:31.773Z,54.70
2018-11-07T02:47:01.114Z,58.83
2018-11-07T02:49:30.302Z,55.37
2018-11-07T02:51:59.564Z,55.10
2018-11-07T02:54:28.581Z,55.47
2018-11-07T02:56:57.563Z,53.90
2018-11-07T02:59:26.640Z,53.90
2018-11-07T03:01:55.674Z,54.00
2018-11-07T03:04:24.717Z,58.90
2018-11-07T03:06:53.781Z,54.97
2018-11-07T03:09:22.869Z,56.87
2018-11-07T03:11:51.898Z,54.90
2018-11-07T03:14:20.920Z,53.97
2018-11-07T03:16:49.977Z,56.53
2018-11-07T03:19:18.942Z,50.90
2018-11-07T03:21:47.896Z,51.20
2018-11-07T03:24:16.835Z,49.73
2018-11-07T03:26:45.908Z,55.00
2018-11-07T03:29:14.997Z,54.77
2018-11-07T03:31:44.146Z,54.17
2018-11-07T03:34:13.269Z,51.33
2018-11-07T03:36:42.885Z,50.20
2018-11-07T03:39:12.358Z,47.30
2018-11-07T03:41:41.551Z,48.50
2018-11-07T03:44:11.723Z,53.10
2018-11-07T03:46:40.818Z,54.20
2018-11-07T03:49:09.929Z,52.33
2018-11-07T03:51:39.006Z,52.87
2018-11-07T03:54:08.198Z,48.23
2018-11-07T03:56:40.941Z,49.90
2018-11-07T03:59:09.989Z,52.23
2018-11-07T04:01:39.079Z,52.37
2018-11-07T04:04:09.204Z,53.73
2018-11-07T04:06:38.259Z,54.70
2018-11-07T04:09:10.331Z,50.73
2018-11-07T04:11:40.566Z,54.63
2018-11-07T04:14:10.023Z,53.20
2018-11-07T04:16:39.524Z,54.77
2018-11-07T04:19:09.671Z,54.43
2018-11-07T04:21:40.101Z,53.97
2018-11-07T04:24:09.300Z,55.67
2018-11-07T04:26:39.634Z,55.17
2018-11-07T04:29:09.239Z,53.53
2018-11-07T04:31:38.723Z,57.23
2018-11-07T04:34:08.650Z,52.37
2018-11-07T04:36:37.864Z,55.87
2018-11-07T04:39:09.985Z,59.47
2018-11-07T04:41:40.064Z,60.67
2018-11-07T04:44:10.652Z,58.70
2018-11-07T04:46:40.050Z,58.73
2018-11-07T04:49:09.412Z,58.37
2018-11-07T04:51:39.039Z,60.67
2018-11-07T04:54:09.234Z,59.23
2018-11-07T04:56:38.410Z,59.10
2018-11-07T04:59:07.771Z,57.97
2018-11-07T05:01:36.977Z,64.87
2018-11-07T05:04:06.480Z,58.83
2018-11-07T05:06:36.837Z,58.33
2018-11-07T05:09:13.490Z,58.17
2018-11-07T05:11:43.611Z,57.30
2018-11-07T05:14:12.851Z,48.50
2018-11-07T05:16:42.088Z,56.60
2018-11-07T05:19:11.293Z,55.30
2018-11-07T05:21:41.562Z,55.83
2018-11-07T05:24:16.259Z,55.50
2018-11-07T05:26:45.472Z,56.33
2018-11-07T05:29:15.076Z,56.50
2018-11-07T05:31:44.463Z,58.43
2018-11-07T05:34:14.614Z,58.23
2018-11-07T05:36:43.858Z,53.33
2018-11-07T05:41:41.296Z,55.03
2018-11-07T05:44:16.775Z,52.97
2018-11-07T05:46:45.765Z,54.63
2018-11-07T05:49:14.857Z,53.80
2018-11-07T05:51:44.037Z,44.93
2018-11-07T05:54:13.156Z,47.10
2018-11-07T05:56:42.250Z,38.70
2018-11-07T05:59:12.229Z,37.10
2018-11-07T06:01:41.372Z,37.27
2018-11-07T06:04:10.478Z,35.73
2018-11-07T06:06:39.436Z,35.60
2018-11-07T06:09:08.660Z,33.73
2018-11-07T06:11:37.984Z,33.90
2018-11-07T06:14:07.374Z,33.43
2018-11-07T06:16:36.449Z,34.70
2018-11-07T06:19:05.369Z,31.83
2018-11-07T06:21:34.584Z,33.07
2018-11-07T06:24:03.569Z,30.93
2018-11-07T06:26:32.441Z,33.47
2018-11-07T06:29:01.824Z,33.10
2018-11-07T06:31:30.799Z,33.63
2018-11-07T06:33:59.974Z,33.70
2018-11-07T06:36:29.527Z,31.90
2018-11-07T06:38:58.401Z,32.00
2018-11-07T06:41:28.944Z,31.73
2018-11-07T06:43:58.324Z,32.50
2018-11-07T06:46:27.244Z,32.27
2018-11-07T06:48:56.141Z,33.40
2018-11-07T06:51:25.032Z,32.03
2018-11-07T06:53:54.881Z,33.17
2018-11-07T06:56:23.757Z,33.63
2018-11-07T06:58:52.643Z,31.87
2018-11-07T07:01:21.553Z,34.53
2018-11-07T07:03:50.389Z,33.07
2018-11-07T07:06:19.194Z,32.57
2018-11-07T07:08:48.073Z,33.83
2018-11-07T07:11:16.961Z,33.63
2018-11-07T07:13:45.762Z,33.63
2018-11-07T07:16:14.661Z,34.03
2018-11-07T07:18:43.588Z,33.77
2018-11-07T07:21:12.460Z,31.63
2018-11-07T07:23:41.370Z,36.53
2018-11-07T07:26:10.343Z,34.60
2018-11-07T07:28:39.512Z,36.20
2018-11-07T07:31:08.426Z,36.20
2018-11-07T07:33:37.382Z,34.50
2018-11-07T07:36:06.698Z,34.10
2018-11-07T07:38:35.658Z,32.97
2018-11-07T07:41:05.141Z,34.20
2018-11-07T07:43:34.024Z,33.00
2018-11-07T07:46:02.967Z,32.37
2018-11-07T07:48:31.925Z,35.00
2018-11-07T07:51:01.418Z,35.77
2018-11-07T07:53:30.479Z,32.37
2018-11-07T07:55:59.529Z,35.83
2018-11-07T07:58:28.511Z,35.53
2018-11-07T08:00:58.165Z,38.27
2018-11-07T08:03:27.084Z,39.67
2018-11-07T08:05:55.888Z,37.67
2018-11-07T08:08:25.054Z,35.00
2018-11-07T08:10:56.921Z,37.63
2018-11-07T08:13:26.218Z,38.70
2018-11-07T08:15:55.132Z,44.97
2018-11-07T08:18:25.318Z,43.17
2018-11-07T08:20:54.457Z,43.30
2018-11-07T08:23:24.570Z,45.63
2018-11-07T08:25:53.637Z,45.43
2018-11-07T08:28:24.369Z,44.50
2018-11-07T08:30:56.995Z,42.40
2018-11-07T08:33:25.981Z,41.30
2018-11-07T08:36:01.624Z,38.23
2018-11-07T08:38:30.548Z,34.97
2018-11-07T08:40:59.434Z,36.40
2018-11-07T08:43:28.490Z,40.17
2018-11-07T08:45:57.497Z,44.93
2018-11-07T08:48:26.656Z,43.80
2018-11-07T08:50:55.538Z,44.23
2018-11-07T08:53:24.476Z,42.63
2018-11-07T08:55:53.356Z,43.97
2018-11-07T08:58:22.291Z,40.97
2018-11-07T09:00:52.548Z,45.07
2018-11-07T09:03:22.100Z,43.27
2018-11-07T09:05:51.467Z,39.90
2018-11-07T09:08:20.720Z,40.37
2018-11-07T09:10:50.089Z,41.27
2018-11-07T09:13:19.821Z,39.03
2018-11-07T09:15:49.259Z,35.40
2018-11-07T09:18:18.909Z,33.83
2018-11-07T09:20:48.156Z,35.60
2018-11-07T09:23:17.271Z,31.90
2018-11-07T09:25:46.512Z,30.97
2018-11-07T09:28:16.058Z,32.87
2018-11-07T09:30:46.398Z,29.63
2018-11-07T09:33:15.542Z,31.37
2018-11-07T09:35:44.621Z,29.67
2018-11-07T09:38:14.253Z,28.70
2018-11-07T09:40:43.988Z,29.10
2018-11-07T09:43:13.566Z,30.33
2018-11-07T09:45:42.870Z,28.03
2018-11-07T09:48:12.504Z,28.90
2018-11-07T09:50:42.446Z,29.37
2018-11-07T09:53:11.700Z,28.53
2018-11-07T09:55:45.642Z,30.07
2018-11-07T09:58:16.019Z,28.77
2018-11-07T10:00:45.510Z,26.90
2018-11-07T10:03:15.083Z,28.67
2018-11-07T10:05:44.929Z,27.87
2018-11-07T10:08:14.423Z,28.77
2018-11-07T10:10:43.410Z,29.47
2018-11-07T10:13:12.448Z,31.03
2018-11-07T10:15:41.613Z,28.10
2018-11-07T10:18:11.380Z,25.67
2018-11-07T10:20:40.509Z,29.83
2018-11-07T10:23:10.315Z,28.83
2018-11-07T10:25:39.919Z,27.33
2018-11-07T10:28:09.984Z,27.13
2018-11-07T10:30:38.575Z,26.80
2018-11-07T10:33:07.892Z,28.03
2018-11-07T10:35:37.383Z,27.70
2018-11-07T10:38:07.281Z,27.93
2018-11-07T10:40:36.268Z,26.47
2018-11-07T10:43:05.306Z,27.57
2018-11-07T10:45:34.571Z,26.77
2018-11-07T10:48:03.811Z,25.87
2018-11-07T10:50:33.668Z,26.73
2018-11-07T10:53:02.622Z,27.23
2018-11-07T10:55:31.585Z,27.50
2018-11-07T10:58:00.690Z,28.87
2018-11-07T11:00:34.775Z,26.20
2018-11-07T11:03:09.726Z,26.97
2018-11-07T11:05:40.259Z,24.67
2018-11-07T11:08:09.725Z,26.87
2018-11-07T11:10:39.022Z,25.90
2018-11-07T11:13:08.233Z,26.03
2018-11-07T11:15:37.459Z,26.70
2018-11-07T11:18:06.638Z,25.23
2018-11-07T11:20:35.860Z,24.37
2018-11-07T11:23:05.331Z,25.07
2018-11-07T11:25:40.369Z,24.40
2018-11-07T11:28:10.028Z,26.03
2018-11-07T11:30:39.032Z,25.47
2018-11-07T11:33:08.064Z,25.43
2018-11-07T11:35:37.668Z,26.17
2018-11-07T11:38:07.926Z,25.57
2018-11-07T11:40:38.432Z,25.13
2018-11-07T11:43:07.415Z,25.07
2018-11-07T11:45:36.845Z,24.83
2018-11-07T11:48:07.259Z,25.60
2018-11-07T11:50:36.250Z,25.70
2018-11-07T11:53:05.221Z,25.50
2018-11-07T11:55:34.450Z,25.43
2018-11-07T11:58:03.937Z,25.23
2018-11-07T12:00:32.853Z,24.87
2018-11-07T12:03:01.930Z,24.67
2018-11-07T12:05:30.805Z,25.43
2018-11-07T12:07:59.911Z,25.60
2018-11-07T12:10:29.132Z,26.73
2018-11-07T12:13:06.075Z,25.97
2018-11-07T12:15:35.160Z,28.03
2018-11-07T12:18:04.349Z,26.30
2018-11-07T12:20:33.391Z,25.93
2018-11-07T12:23:02.606Z,25.33
2018-11-07T12:25:31.797Z,27.07
2018-11-07T12:28:01.402Z,26.20
2018-11-07T12:30:30.555Z,25.33
2018-11-07T12:32:59.727Z,25.27
2018-11-07T12:35:29.261Z,24.80
2018-11-07T12:38:02.637Z,24.57
2018-11-07T12:43:00.321Z,25.87
2018-11-07T12:45:29.415Z,26.47
2018-11-07T12:47:58.376Z,25.13
2018-11-07T12:50:27.395Z,23.80
2018-11-07T12:52:56.585Z,25.13
2018-11-07T12:55:25.562Z,24.70
2018-11-07T12:57:54.710Z,24.97
2018-11-07T13:00:24.872Z,26.00
2018-11-07T13:02:58.201Z,25.03
2018-11-07T13:05:27.465Z,25.20
2018-11-07T13:07:57.376Z,24.47
2018-11-07T13:10:26.325Z,25.23
2018-11-07T13:12:55.428Z,26.03
2018-11-07T13:15:24.368Z,25.93
2018-11-07T13:17:53.585Z,24.40
2018-11-07T13:20:24.765Z,25.30
2018-11-07T13:22:54.339Z,26.27
2018-11-07T13:25:24.820Z,25.83
2018-11-07T13:27:53.745Z,26.23
2018-11-07T13:30:23.371Z,27.50
2018-11-07T13:32:53.121Z,27.90
2018-11-07T13:35:22.286Z,27.13
2018-11-07T13:37:53.022Z,27.33
2018-11-07T13:40:23.113Z,26.27
2018-11-07T13:42:53.096Z,26.47
2018-11-07T13:45:26.714Z,27.33
2018-11-07T13:47:55.831Z,26.37
2018-11-07T13:50:24.941Z,25.70
2018-11-07T13:52:54.549Z,25.83
2018-11-07T13:55:23.705Z,25.40
2018-11-07T13:57:52.739Z,25.33
2018-11-07T14:00:23.896Z,24.97
2018-11-07T14:02:53.814Z,25.70
2018-11-07T14:05:23.283Z,25.10
2018-11-07T14:07:53.489Z,25.80
2018-11-07T14:10:23.973Z,26.43
2018-11-07T14:12:54.560Z,26.33
2018-11-07T14:15:23.857Z,27.50
2018-11-07T14:17:53.249Z,27.03
2018-11-07T14:20:22.610Z,27.00
2018-11-07T14:22:52.952Z,25.90
2018-11-07T14:25:22.194Z,24.10
2018-11-07T14:27:51.501Z,26.67
2018-11-07T14:30:21.198Z,26.03
2018-11-07T14:32:54.135Z,26.67
2018-11-07T14:35:23.534Z,27.07
2018-11-07T14:37:53.397Z,24.63
2018-11-07T14:40:22.289Z,25.53
2018-11-07T14:42:51.405Z,25.27
2018-11-07T14:45:26.854Z,27.30
2018-11-07T14:47:55.931Z,26.77
2018-11-07T14:50:24.960Z,25.77
2018-11-07T14:52:53.881Z,26.10
2018-11-07T14:55:22.931Z,25.93
2018-11-07T14:57:51.803Z,26.30
2018-11-07T15:00:20.749Z,26.17
2018-11-07T15:02:50.539Z,25.00
2018-11-07T15:05:19.911Z,26.73
2018-11-07T15:07:48.911Z,25.83
2018-11-07T15:10:18.306Z,26.67
2018-11-07T15:12:47.547Z,25.53
2018-11-07T15:15:17.947Z,27.77
2018-11-07T15:17:46.983Z,26.37
2018-11-07T15:20:16.868Z,26.70
2018-11-07T15:22:45.858Z,27.77
2018-11-07T15:25:15.998Z,26.73
2018-11-07T15:27:45.808Z,28.03
2018-11-07T15:30:15.680Z,26.67
2018-11-07T15:32:45.304Z,27.60
2018-11-07T15:35:14.714Z,28.67
2018-11-07T15:37:43.749Z,28.30
2018-11-07T15:40:17.347Z,26.23
2018-11-07T15:42:47.170Z,28.67
2018-11-07T15:45:32.267Z,27.37
2018-11-07T15:48:01.153Z,27.83
2018-11-07T15:50:35.326Z,24.93
2018-11-07T15:53:04.287Z,26.07
2018-11-07T15:55:33.943Z,29.30
2018-11-07T15:58:02.909Z,28.50
2018-11-07T16:00:31.889Z,27.60
2018-11-07T16:03:00.863Z,29.00
2018-11-07T16:05:29.865Z,30.23
2018-11-07T16:07:59.393Z,29.57
2018-11-07T16:10:29.465Z,28.77
2018-11-07T16:13:00.533Z,28.07
2018-11-07T16:15:29.936Z,28.07
2018-11-07T16:18:02.514Z,29.17
2018-11-07T16:20:31.754Z,30.27
2018-11-07T16:23:00.964Z,28.97
2018-11-07T16:25:37.036Z,29.13
2018-11-07T16:28:06.143Z,28.30
2018-11-07T16:30:35.652Z,29.63
2018-11-07T16:33:06.010Z,31.20
2018-11-07T16:35:35.555Z,30.10
2018-11-07T16:38:06.308Z,28.50
2018-11-07T16:40:35.757Z,29.13
2018-11-07T16:43:04.819Z,30.27
2018-11-07T16:45:33.966Z,29.07
2018-11-07T16:48:04.190Z,30.17
2018-11-07T16:50:34.329Z,31.07
2018-11-07T16:53:03.496Z,30.30
2018-11-07T16:55:33.057Z,32.40
2018-11-07T16:58:03.573Z,33.60
2018-11-07T17:00:35.138Z,32.53
2018-11-07T17:03:05.872Z,33.63
2018-11-07T17:05:36.810Z,32.23
2018-11-07T17:08:07.996Z,29.67
2018-11-07T17:10:37.499Z,30.63
2018-11-07T17:13:06.555Z,30.63
2018-11-07T17:15:36.685Z,29.93
2018-11-07T17:18:05.655Z,29.93
2018-11-07T17:20:34.799Z,32.40
2018-11-07T17:23:04.190Z,35.03
2018-11-07T17:25:33.278Z,38.60
2018-11-07T17:28:02.616Z,38.77
2018-11-07T17:30:31.859Z,40.77
2018-11-07T17:33:01.029Z,39.30
2018-11-07T17:35:30.429Z,40.87
2018-11-07T17:37:59.532Z,45.40
2018-11-07T17:40:29.158Z,44.23
2018-11-07T17:42:58.439Z,43.83
2018-11-07T17:45:27.577Z,42.70
2018-11-07T17:47:56.666Z,46.33
2018-11-07T17:50:26.420Z,42.37
2018-11-07T17:52:57.641Z,42.70
2018-11-07T17:57:54.877Z,36.83
2018-11-07T18:00:29.762Z,34.70
2018-11-07T18:02:58.723Z,35.33
2018-11-07T18:05:27.768Z,36.77
2018-11-07T18:07:56.686Z,36.03
2018-11-07T18:10:25.600Z,40.10
2018-11-07T18:12:54.703Z,40.70
2018-11-07T18:15:23.987Z,47.10
2018-11-07T18:17:53.100Z,44.50
2018-11-07T18:20:22.022Z,47.40
2018-11-07T18:22:51.178Z,45.07
2018-11-07T18:25:20.221Z,44.23
2018-11-07T18:27:49.320Z,46.07
2018-11-07T18:30:18.484Z,49.07
2018-11-07T18:32:48.175Z,45.20
2018-11-07T18:35:18.628Z,40.67
2018-11-07T18:37:47.990Z,42.90
2018-11-07T18:40:18.391Z,39.90
2018-11-07T18:42:47.305Z,40.73
2018-11-07T18:45:16.752Z,42.73
2018-11-07T18:47:52.413Z,41.73
2018-11-07T18:50:21.787Z,44.67
2018-11-07T18:52:50.866Z,43.93
2018-11-07T18:55:19.953Z,41.90
2018-11-07T18:57:49.159Z,43.50
2018-11-07T19:00:19.545Z,42.77
2018-11-07T19:02:50.269Z,45.53
2018-11-07T19:05:19.880Z,41.57
2018-11-07T19:07:48.938Z,41.33
2018-11-07T19:10:19.257Z,37.90
2018-11-07T19:12:49.457Z,35.93
2018-11-07T19:15:18.959Z,32.27
2018-11-07T19:17:49.064Z,33.07
2018-11-07T19:20:18.778Z,36.37
2018-11-07T19:22:47.785Z,42.97
2018-11-07T19:25:18.222Z,43.10
2018-11-07T19:27:47.471Z,41.23
2018-11-07T19:30:18.950Z,66.73
2018-11-07T19:32:49.088Z,46.80
2018-11-07T19:35:19.808Z,49.07
2018-11-07T19:37:49.354Z,47.23
2018-11-07T19:40:23.138Z,47.70
2018-11-07T19:42:53.224Z,45.50
2018-11-07T19:45:22.884Z,39.37
2018-11-07T19:47:53.255Z,46.93
2018-11-07T19:50:22.860Z,47.03
2018-11-07T19:52:53.304Z,41.80
2018-11-07T19:55:23.786Z,43.00
2018-11-07T19:57:54.747Z,41.93
2018-11-07T20:00:24.026Z,36.07
2018-11-07T20:02:54.135Z,38.40
2018-11-07T20:05:23.329Z,38.63
2018-11-07T20:07:54.143Z,39.60
2018-11-07T20:10:30.520Z,38.93
2018-11-07T20:13:01.519Z,37.33
2018-11-07T20:15:30.788Z,39.67
2018-11-07T20:18:00.185Z,39.67
2018-11-07T20:20:29.298Z,36.60
2018-11-07T20:22:59.446Z,39.37
2018-11-07T20:25:29.655Z,37.10
2018-11-07T20:27:59.964Z,40.47
2018-11-07T20:30:29.912Z,39.10
2018-11-07T20:32:59.116Z,38.93
2018-11-07T20:35:28.402Z,42.70
2018-11-07T20:37:57.782Z,40.13
2018-11-07T20:40:26.875Z,42.83
2018-11-07T20:42:56.065Z,44.50
2018-11-07T20:45:25.294Z,36.00
2018-11-07T20:47:54.388Z,37.03
2018-11-07T20:50:23.538Z,39.83
2018-11-07T20:52:53.168Z,40.60
2018-11-07T20:55:22.311Z,43.83
2018-11-07T20:57:51.883Z,45.27
2018-11-07T21:00:22.294Z,41.47
2018-11-07T21:02:51.475Z,41.37
2018-11-07T21:05:20.512Z,42.00
2018-11-07T21:07:49.550Z,38.87
2018-11-07T21:10:21.468Z,42.47
2018-11-07T21:12:55.135Z,40.57
2018-11-07T21:15:24.164Z,43.60
2018-11-07T21:17:53.583Z,39.50
2018-11-07T21:20:22.630Z,39.17
2018-11-07T21:22:51.963Z,36.20
2018-11-07T21:25:21.352Z,40.57
2018-11-07T21:27:51.245Z,39.80
2018-11-07T21:30:21.668Z,39.90
2018-11-07T21:32:50.853Z,39.57
2018-11-07T21:35:20.026Z,39.83
2018-11-07T21:37:49.073Z,39.37
2018-11-07T21:40:18.450Z,40.40
2018-11-07T21:42:48.128Z,41.23
2018-11-07T21:45:17.291Z,39.10
2018-11-07T21:47:46.393Z,41.17
2018-11-07T21:50:16.839Z,43.27
2018-11-07T21:52:45.902Z,40.40
2018-11-07T21:55:14.893Z,40.77
2018-11-07T21:57:43.941Z,40.20
2018-11-07T22:00:15.357Z,41.03
2018-11-07T22:02:44.550Z,40.33
2018-11-07T22:05:14.334Z,42.03
2018-11-07T22:07:44.459Z,41.73
2018-11-07T22:10:15.282Z,41.80
2018-11-07T22:12:44.379Z,39.97
2018-11-07T22:15:13.485Z,39.00
2018-11-07T22:17:42.596Z,40.63
2018-11-07T22:20:14.422Z,40.37
2018-11-07T22:22:44.020Z,42.83
2018-11-07T22:25:13.080Z,40.33
2018-11-07T22:27:42.207Z,42.80
2018-11-07T22:30:12.918Z,41.27
2018-11-07T22:32:41.961Z,39.87
2018-11-07T22:35:12.500Z,42.13
2018-11-07T22:37:41.997Z,43.60
2018-11-07T22:40:12.830Z,42.63
2018-11-07T22:42:42.538Z,41.33
2018-11-07T22:45:12.250Z,44.43
2018-11-07T22:47:41.336Z,42.63
2018-11-07T22:50:12.144Z,43.07
2018-11-07T22:52:43.036Z,42.30
2018-11-07T22:55:12.079Z,41.30
2018-11-07T22:57:41.044Z,41.93
2018-11-07T23:01:15.797Z,38.87
2018-11-07T23:03:45.805Z,42.80
2018-11-07T23:06:14.832Z,42.87
2018-11-07T23:08:43.802Z,42.30
2018-11-07T23:11:13.028Z,42.67
2018-11-07T23:13:42.337Z,43.93
2018-11-07T23:16:11.434Z,49.57
2018-11-07T23:18:40.516Z,48.23
2018-11-07T23:21:09.493Z,49.73
2018-11-07T23:23:38.547Z,50.30
2018-11-07T23:26:07.698Z,47.73
2018-11-07T23:28:36.602Z,47.47
2018-11-07T23:31:05.760Z,48.70
2018-11-07T23:33:34.734Z,49.33
2018-11-07T23:36:03.791Z,50.57
2018-11-07T23:38:33.665Z,47.87
2018-11-07T23:41:02.688Z,45.93
2018-11-07T23:43:31.739Z,45.20
2018-11-07T23:46:00.784Z,45.27
2018-11-07T23:48:29.771Z,44.27
2018-11-07T23:50:58.757Z,44.30
2018-11-07T23:53:27.738Z,46.73
2018-11-07T23:55:56.724Z,45.63
2018-11-07T23:58:25.735Z,47.13
